sensor_id;sensor_type;location;lat;lon;timestamp;P1;durP1;ratioP1;P2;durP2;ratioP2
44276;SDS011;29973;43.742;1.236;2023-05-03T00:00:21;6.10;;;3.80;;
44276;SDS011;29973;43.742;1.236;2023-05-03T00:02:47;6.88;;;3.75;;
44276;SDS011;29973;43.742;1.236;2023-05-03T00:05:12;8.27;;;4.40;;
44276;SDS011;29973;43.742;1.236;2023-05-03T00:07:42;5.55;;;3.63;;
44276;SDS011;29973;43.742;1.236;2023-05-03T00:10:09;8.07;;;3.92;;
44276;SDS011;29973;43.742;1.236;2023-05-03T00:12:40;6.30;;;3.53;;
44276;SDS011;29973;43.742;1.236;2023-05-03T00:15:06;6.72;;;4.35;;
44276;SDS011;29973;43.742;1.236;2023-05-03T00:17:33;7.13;;;3.88;;
44276;SDS011;29973;43.742;1.236;2023-05-03T00:20:00;8.02;;;4.80;;
44276;SDS011;29973;43.742;1.236;2023-05-03T00:22:26;10.98;;;4.28;;
44276;SDS011;29973;43.742;1.236;2023-05-03T00:24:51;10.48;;;4.07;;
44276;SDS011;29973;43.742;1.236;2023-05-03T00:27:17;8.57;;;4.70;;
44276;SDS011;29973;43.742;1.236;2023-05-03T00:29:43;9.55;;;4.45;;
44276;SDS011;29973;43.742;1.236;2023-05-03T00:32:10;6.35;;;4.03;;
44276;SDS011;29973;43.742;1.236;2023-05-03T00:34:36;6.18;;;4.07;;
44276;SDS011;29973;43.742;1.236;2023-05-03T00:37:02;9.80;;;4.32;;
44276;SDS011;29973;43.742;1.236;2023-05-03T00:39:28;7.28;;;4.95;;
44276;SDS011;29973;43.742;1.236;2023-05-03T00:41:57;9.15;;;4.57;;
44276;SDS011;29973;43.742;1.236;2023-05-03T00:44:24;12.20;;;5.05;;
44276;SDS011;29973;43.742;1.236;2023-05-03T00:46:50;7.18;;;4.72;;
44276;SDS011;29973;43.742;1.236;2023-05-03T00:49:16;9.32;;;4.63;;
44276;SDS011;29973;43.742;1.236;2023-05-03T00:51:42;7.38;;;5.13;;
44276;SDS011;29973;43.742;1.236;2023-05-03T00:54:08;11.18;;;5.03;;
44276;SDS011;29973;43.742;1.236;2023-05-03T00:56:34;9.50;;;5.10;;
44276;SDS011;29973;43.742;1.236;2023-05-03T00:59:01;6.68;;;4.95;;
44276;SDS011;29973;43.742;1.236;2023-05-03T01:01:28;9.98;;;4.80;;
44276;SDS011;29973;43.742;1.236;2023-05-03T01:03:54;9.88;;;5.25;;
44276;SDS011;29973;43.742;1.236;2023-05-03T01:09:14;11.63;;;5.68;;
44276;SDS011;29973;43.742;1.236;2023-05-03T01:12:33;8.30;;;5.35;;
44276;SDS011;29973;43.742;1.236;2023-05-03T01:17:14;9.30;;;4.63;;
44276;SDS011;29973;43.742;1.236;2023-05-03T01:19:43;8.05;;;5.20;;
44276;SDS011;29973;43.742;1.236;2023-05-03T01:24:44;9.77;;;6.10;;
44276;SDS011;29973;43.742;1.236;2023-05-03T01:27:13;10.30;;;5.65;;
44276;SDS011;29973;43.742;1.236;2023-05-03T01:29:39;13.63;;;5.07;;
44276;SDS011;29973;43.742;1.236;2023-05-03T01:32:06;10.30;;;5.75;;
44276;SDS011;29973;43.742;1.236;2023-05-03T01:34:53;11.68;;;5.18;;
44276;SDS011;29973;43.742;1.236;2023-05-03T01:37:27;6.75;;;4.93;;
44276;SDS011;29973;43.742;1.236;2023-05-03T01:39:54;11.18;;;6.07;;
44276;SDS011;29973;43.742;1.236;2023-05-03T01:42:23;13.02;;;5.47;;
44276;SDS011;29973;43.742;1.236;2023-05-03T01:44:51;9.68;;;5.68;;
44276;SDS011;29973;43.742;1.236;2023-05-03T01:47:18;10.52;;;6.28;;
44276;SDS011;29973;43.742;1.236;2023-05-03T01:49:45;8.57;;;5.85;;
44276;SDS011;29973;43.742;1.236;2023-05-03T01:52:10;9.48;;;6.05;;
44276;SDS011;29973;43.742;1.236;2023-05-03T01:54:36;12.57;;;6.07;;
44276;SDS011;29973;43.742;1.236;2023-05-03T01:57:02;7.72;;;5.95;;
44276;SDS011;29973;43.742;1.236;2023-05-03T01:59:28;10.70;;;5.93;;
44276;SDS011;29973;43.742;1.236;2023-05-03T02:01:53;10.23;;;6.28;;
44276;SDS011;29973;43.742;1.236;2023-05-03T02:04:19;9.18;;;5.72;;
44276;SDS011;29973;43.742;1.236;2023-05-03T02:06:45;10.32;;;5.93;;
44276;SDS011;29973;43.742;1.236;2023-05-03T02:09:10;10.10;;;6.20;;
44276;SDS011;29973;43.742;1.236;2023-05-03T02:11:36;10.00;;;6.35;;
44276;SDS011;29973;43.742;1.236;2023-05-03T02:14:02;18.45;;;6.90;;
44276;SDS011;29973;43.742;1.236;2023-05-03T02:16:28;9.60;;;6.22;;
44276;SDS011;29973;43.742;1.236;2023-05-03T02:18:53;9.95;;;5.88;;
44276;SDS011;29973;43.742;1.236;2023-05-03T02:21:23;9.57;;;6.68;;
44276;SDS011;29973;43.742;1.236;2023-05-03T02:23:52;13.68;;;7.07;;
44276;SDS011;29973;43.742;1.236;2023-05-03T02:26:18;12.07;;;6.80;;
44276;SDS011;29973;43.742;1.236;2023-05-03T02:28:44;10.90;;;6.72;;
44276;SDS011;29973;43.742;1.236;2023-05-03T02:31:10;12.13;;;6.60;;
44276;SDS011;29973;43.742;1.236;2023-05-03T02:33:37;12.93;;;7.97;;
44276;SDS011;29973;43.742;1.236;2023-05-03T02:36:03;13.30;;;7.40;;
44276;SDS011;29973;43.742;1.236;2023-05-03T02:38:29;10.85;;;6.63;;
44276;SDS011;29973;43.742;1.236;2023-05-03T02:40:55;10.77;;;6.78;;
44276;SDS011;29973;43.742;1.236;2023-05-03T02:43:21;14.20;;;7.47;;
44276;SDS011;29973;43.742;1.236;2023-05-03T02:45:47;11.70;;;6.97;;
44276;SDS011;29973;43.742;1.236;2023-05-03T02:48:13;11.90;;;7.40;;
44276;SDS011;29973;43.742;1.236;2023-05-03T02:50:40;10.75;;;7.40;;
44276;SDS011;29973;43.742;1.236;2023-05-03T02:53:06;14.02;;;7.35;;
44276;SDS011;29973;43.742;1.236;2023-05-03T02:55:32;11.90;;;7.38;;
44276;SDS011;29973;43.742;1.236;2023-05-03T02:57:58;14.77;;;7.43;;
44276;SDS011;29973;43.742;1.236;2023-05-03T03:00:23;13.07;;;7.20;;
44276;SDS011;29973;43.742;1.236;2023-05-03T03:02:49;11.27;;;7.28;;
44276;SDS011;29973;43.742;1.236;2023-05-03T03:05:15;13.52;;;6.80;;
44276;SDS011;29973;43.742;1.236;2023-05-03T03:07:41;14.55;;;7.10;;
44276;SDS011;29973;43.742;1.236;2023-05-03T03:10:07;13.45;;;6.82;;
44276;SDS011;29973;43.742;1.236;2023-05-03T03:12:37;12.05;;;7.25;;
44276;SDS011;29973;43.742;1.236;2023-05-03T03:15:03;14.93;;;7.18;;
44276;SDS011;29973;43.742;1.236;2023-05-03T03:17:29;15.80;;;8.35;;
44276;SDS011;29973;43.742;1.236;2023-05-03T03:19:56;11.68;;;7.40;;
44276;SDS011;29973;43.742;1.236;2023-05-03T03:22:26;12.38;;;7.78;;
44276;SDS011;29973;43.742;1.236;2023-05-03T03:24:51;14.35;;;7.88;;
44276;SDS011;29973;43.742;1.236;2023-05-03T03:27:17;11.27;;;7.53;;
44276;SDS011;29973;43.742;1.236;2023-05-03T03:29:43;15.38;;;7.47;;
44276;SDS011;29973;43.742;1.236;2023-05-03T03:32:09;15.18;;;7.10;;
44276;SDS011;29973;43.742;1.236;2023-05-03T03:34:34;10.93;;;7.07;;
44276;SDS011;29973;43.742;1.236;2023-05-03T03:37:01;11.05;;;7.47;;
44276;SDS011;29973;43.742;1.236;2023-05-03T03:39:26;16.75;;;7.32;;
44276;SDS011;29973;43.742;1.236;2023-05-03T03:41:52;10.90;;;7.38;;
44276;SDS011;29973;43.742;1.236;2023-05-03T03:44:18;16.42;;;8.25;;
44276;SDS011;29973;43.742;1.236;2023-05-03T03:46:44;10.10;;;7.10;;
44276;SDS011;29973;43.742;1.236;2023-05-03T03:49:09;11.45;;;7.05;;
44276;SDS011;29973;43.742;1.236;2023-05-03T03:51:35;14.63;;;8.05;;
44276;SDS011;29973;43.742;1.236;2023-05-03T03:54:01;11.82;;;7.63;;
44276;SDS011;29973;43.742;1.236;2023-05-03T03:56:26;13.43;;;7.50;;
44276;SDS011;29973;43.742;1.236;2023-05-03T03:58:52;13.18;;;7.68;;
44276;SDS011;29973;43.742;1.236;2023-05-03T04:01:18;12.20;;;7.43;;
44276;SDS011;29973;43.742;1.236;2023-05-03T04:03:44;10.75;;;7.28;;
44276;SDS011;29973;43.742;1.236;2023-05-03T04:06:11;15.23;;;7.40;;
44276;SDS011;29973;43.742;1.236;2023-05-03T04:08:36;16.52;;;7.93;;
44276;SDS011;29973;43.742;1.236;2023-05-03T04:11:02;14.38;;;8.07;;
44276;SDS011;29973;43.742;1.236;2023-05-03T04:13:28;15.05;;;7.97;;
44276;SDS011;29973;43.742;1.236;2023-05-03T04:15:54;12.10;;;7.03;;
44276;SDS011;29973;43.742;1.236;2023-05-03T04:18:20;13.20;;;7.50;;
44276;SDS011;29973;43.742;1.236;2023-05-03T04:20:47;11.80;;;7.50;;
44276;SDS011;29973;43.742;1.236;2023-05-03T04:23:13;14.25;;;7.72;;
44276;SDS011;29973;43.742;1.236;2023-05-03T04:25:39;13.25;;;7.82;;
44276;SDS011;29973;43.742;1.236;2023-05-03T04:30:37;14.80;;;7.05;;
44276;SDS011;29973;43.742;1.236;2023-05-03T04:33:03;13.27;;;7.70;;
44276;SDS011;29973;43.742;1.236;2023-05-03T04:35:29;12.70;;;7.93;;
44276;SDS011;29973;43.742;1.236;2023-05-03T04:37:54;16.92;;;8.20;;
44276;SDS011;29973;43.742;1.236;2023-05-03T04:40:20;17.02;;;8.15;;
44276;SDS011;29973;43.742;1.236;2023-05-03T04:42:46;16.08;;;8.68;;
44276;SDS011;29973;43.742;1.236;2023-05-03T04:45:12;11.73;;;7.72;;
44276;SDS011;29973;43.742;1.236;2023-05-03T04:47:38;15.13;;;7.78;;
44276;SDS011;29973;43.742;1.236;2023-05-03T04:50:04;16.50;;;8.40;;
44276;SDS011;29973;43.742;1.236;2023-05-03T04:52:33;13.18;;;9.00;;
44276;SDS011;29973;43.742;1.236;2023-05-03T04:54:59;17.60;;;7.80;;
44276;SDS011;29973;43.742;1.236;2023-05-03T04:57:24;13.80;;;8.27;;
44276;SDS011;29973;43.742;1.236;2023-05-03T04:59:50;10.48;;;7.55;;
44276;SDS011;29973;43.742;1.236;2023-05-03T05:02:18;15.77;;;7.50;;
44276;SDS011;29973;43.742;1.236;2023-05-03T05:04:43;10.73;;;7.82;;
44276;SDS011;29973;43.742;1.236;2023-05-03T05:07:10;17.05;;;8.50;;
44276;SDS011;29973;43.742;1.236;2023-05-03T05:09:36;18.58;;;8.85;;
44276;SDS011;29973;43.742;1.236;2023-05-03T05:12:02;16.35;;;9.30;;
44276;SDS011;29973;43.742;1.236;2023-05-03T05:14:29;12.10;;;7.78;;
44276;SDS011;29973;43.742;1.236;2023-05-03T05:16:55;12.63;;;8.30;;
44276;SDS011;29973;43.742;1.236;2023-05-03T05:19:21;12.50;;;8.07;;
44276;SDS011;29973;43.742;1.236;2023-05-03T05:21:47;15.45;;;7.88;;
44276;SDS011;29973;43.742;1.236;2023-05-03T05:24:12;14.98;;;8.95;;
44276;SDS011;29973;43.742;1.236;2023-05-03T05:26:38;14.75;;;8.60;;
44276;SDS011;29973;43.742;1.236;2023-05-03T05:29:05;14.55;;;8.20;;
44276;SDS011;29973;43.742;1.236;2023-05-03T05:31:31;11.32;;;7.63;;
44276;SDS011;29973;43.742;1.236;2023-05-03T05:33:57;14.65;;;8.73;;
44276;SDS011;29973;43.742;1.236;2023-05-03T05:36:23;14.77;;;7.72;;
44276;SDS011;29973;43.742;1.236;2023-05-03T05:38:48;18.13;;;8.52;;
44276;SDS011;29973;43.742;1.236;2023-05-03T05:41:14;13.52;;;7.72;;
44276;SDS011;29973;43.742;1.236;2023-05-03T05:43:40;15.93;;;9.18;;
44276;SDS011;29973;43.742;1.236;2023-05-03T05:46:06;14.25;;;9.40;;
44276;SDS011;29973;43.742;1.236;2023-05-03T05:48:32;17.70;;;10.05;;
44276;SDS011;29973;43.742;1.236;2023-05-03T05:50:58;17.85;;;10.20;;
44276;SDS011;29973;43.742;1.236;2023-05-03T05:53:23;20.00;;;10.35;;
44276;SDS011;29973;43.742;1.236;2023-05-03T05:55:49;17.10;;;11.00;;
44276;SDS011;29973;43.742;1.236;2023-05-03T05:58:15;22.60;;;11.55;;
44276;SDS011;29973;43.742;1.236;2023-05-03T06:00:41;20.75;;;11.90;;
44276;SDS011;29973;43.742;1.236;2023-05-03T06:03:07;24.17;;;13.40;;
44276;SDS011;29973;43.742;1.236;2023-05-03T06:05:33;23.42;;;11.98;;
44276;SDS011;29973;43.742;1.236;2023-05-03T06:07:59;20.50;;;12.25;;
44276;SDS011;29973;43.742;1.236;2023-05-03T06:10:24;17.13;;;11.10;;
44276;SDS011;29973;43.742;1.236;2023-05-03T06:12:50;17.75;;;11.70;;
44276;SDS011;29973;43.742;1.236;2023-05-03T06:15:17;14.23;;;9.32;;
44276;SDS011;29973;43.742;1.236;2023-05-03T06:17:42;16.45;;;9.82;;
44276;SDS011;29973;43.742;1.236;2023-05-03T06:20:09;14.20;;;9.82;;
44276;SDS011;29973;43.742;1.236;2023-05-03T06:22:37;15.70;;;9.95;;
44276;SDS011;29973;43.742;1.236;2023-05-03T06:25:03;10.55;;;7.65;;
44276;SDS011;29973;43.742;1.236;2023-05-03T06:27:31;11.15;;;8.25;;
44276;SDS011;29973;43.742;1.236;2023-05-03T06:29:57;15.77;;;8.57;;
44276;SDS011;29973;43.742;1.236;2023-05-03T06:32:23;11.55;;;7.95;;
44276;SDS011;29973;43.742;1.236;2023-05-03T06:34:48;12.13;;;7.32;;
44276;SDS011;29973;43.742;1.236;2023-05-03T06:37:14;10.40;;;6.60;;
44276;SDS011;29973;43.742;1.236;2023-05-03T06:39:41;11.57;;;7.93;;
44276;SDS011;29973;43.742;1.236;2023-05-03T06:42:07;11.45;;;6.82;;
44276;SDS011;29973;43.742;1.236;2023-05-03T06:44:32;11.07;;;6.95;;
44276;SDS011;29973;43.742;1.236;2023-05-03T06:46:58;10.43;;;6.28;;
44276;SDS011;29973;43.742;1.236;2023-05-03T06:49:24;12.80;;;6.95;;
44276;SDS011;29973;43.742;1.236;2023-05-03T06:51:49;10.48;;;6.97;;
44276;SDS011;29973;43.742;1.236;2023-05-03T06:54:16;10.93;;;7.13;;
44276;SDS011;29973;43.742;1.236;2023-05-03T06:56:41;8.40;;;6.72;;
44276;SDS011;29973;43.742;1.236;2023-05-03T06:59:07;14.55;;;6.85;;
44276;SDS011;29973;43.742;1.236;2023-05-03T07:01:33;8.50;;;5.85;;
44276;SDS011;29973;43.742;1.236;2023-05-03T07:03:59;8.10;;;6.05;;
44276;SDS011;29973;43.742;1.236;2023-05-03T07:06:25;8.60;;;5.78;;
44276;SDS011;29973;43.742;1.236;2023-05-03T07:08:51;8.48;;;6.00;;
44276;SDS011;29973;43.742;1.236;2023-05-03T07:11:21;9.02;;;5.70;;
44276;SDS011;29973;43.742;1.236;2023-05-03T07:13:49;9.23;;;6.22;;
44276;SDS011;29973;43.742;1.236;2023-05-03T07:16:16;10.60;;;6.05;;
44276;SDS011;29973;43.742;1.236;2023-05-03T07:18:42;8.65;;;6.40;;
44276;SDS011;29973;43.742;1.236;2023-05-03T07:21:08;8.95;;;5.15;;
44276;SDS011;29973;43.742;1.236;2023-05-03T07:23:34;9.05;;;5.32;;
44276;SDS011;29973;43.742;1.236;2023-05-03T07:26:00;9.30;;;5.88;;
44276;SDS011;29973;43.742;1.236;2023-05-03T07:28:26;9.63;;;4.85;;
44276;SDS011;29973;43.742;1.236;2023-05-03T07:30:51;8.20;;;5.40;;
44276;SDS011;29973;43.742;1.236;2023-05-03T07:33:17;6.25;;;5.13;;
44276;SDS011;29973;43.742;1.236;2023-05-03T07:35:46;8.07;;;4.93;;
44276;SDS011;29973;43.742;1.236;2023-05-03T07:38:13;15.57;;;4.85;;
44276;SDS011;29973;43.742;1.236;2023-05-03T07:40:39;7.57;;;4.32;;
44276;SDS011;29973;43.742;1.236;2023-05-03T07:43:05;8.38;;;4.32;;
44276;SDS011;29973;43.742;1.236;2023-05-03T07:45:34;7.95;;;4.95;;
44276;SDS011;29973;43.742;1.236;2023-05-03T07:48:00;6.25;;;4.78;;
44276;SDS011;29973;43.742;1.236;2023-05-03T07:50:26;7.45;;;5.32;;
44276;SDS011;29973;43.742;1.236;2023-05-03T07:52:52;9.30;;;4.72;;
44276;SDS011;29973;43.742;1.236;2023-05-03T07:55:18;7.72;;;3.85;;
44276;SDS011;29973;43.742;1.236;2023-05-03T07:57:44;15.10;;;4.40;;
44276;SDS011;29973;43.742;1.236;2023-05-03T08:00:10;6.63;;;3.88;;
44276;SDS011;29973;43.742;1.236;2023-05-03T08:02:37;6.57;;;3.72;;
44276;SDS011;29973;43.742;1.236;2023-05-03T08:05:03;5.80;;;4.00;;
44276;SDS011;29973;43.742;1.236;2023-05-03T08:07:30;8.20;;;3.80;;
44276;SDS011;29973;43.742;1.236;2023-05-03T08:09:56;7.38;;;2.78;;
44276;SDS011;29973;43.742;1.236;2023-05-03T08:12:25;4.00;;;2.67;;
44276;SDS011;29973;43.742;1.236;2023-05-03T08:14:52;4.80;;;2.53;;
44276;SDS011;29973;43.742;1.236;2023-05-03T08:17:18;4.10;;;1.90;;
44276;SDS011;29973;43.742;1.236;2023-05-03T08:19:45;3.83;;;2.00;;
44276;SDS011;29973;43.742;1.236;2023-05-03T08:22:11;4.03;;;2.28;;
44276;SDS011;29973;43.742;1.236;2023-05-03T08:24:40;5.15;;;2.15;;
44276;SDS011;29973;43.742;1.236;2023-05-03T08:27:06;2.78;;;2.25;;
44276;SDS011;29973;43.742;1.236;2023-05-03T08:29:33;2.53;;;1.95;;
44276;SDS011;29973;43.742;1.236;2023-05-03T08:32:02;5.40;;;2.10;;
44276;SDS011;29973;43.742;1.236;2023-05-03T08:34:29;3.58;;;2.47;;
44276;SDS011;29973;43.742;1.236;2023-05-03T08:36:55;2.67;;;1.80;;
44276;SDS011;29973;43.742;1.236;2023-05-03T08:39:24;4.68;;;2.20;;
44276;SDS011;29973;43.742;1.236;2023-05-03T08:41:55;5.28;;;2.30;;
44276;SDS011;29973;43.742;1.236;2023-05-03T08:44:21;5.38;;;2.30;;
44276;SDS011;29973;43.742;1.236;2023-05-03T08:46:47;6.78;;;1.85;;
44276;SDS011;29973;43.742;1.236;2023-05-03T08:49:14;6.28;;;2.03;;
44276;SDS011;29973;43.742;1.236;2023-05-03T08:51:41;3.25;;;1.77;;
44276;SDS011;29973;43.742;1.236;2023-05-03T08:54:11;5.85;;;2.13;;
44276;SDS011;29973;43.742;1.236;2023-05-03T08:56:39;14.27;;;2.40;;
44276;SDS011;29973;43.742;1.236;2023-05-03T08:59:11;3.28;;;2.00;;
44276;SDS011;29973;43.742;1.236;2023-05-03T09:01:38;2.55;;;1.90;;
44276;SDS011;29973;43.742;1.236;2023-05-03T09:04:05;4.18;;;2.25;;
44276;SDS011;29973;43.742;1.236;2023-05-03T09:06:32;3.78;;;1.80;;
44276;SDS011;29973;43.742;1.236;2023-05-03T09:08:58;4.43;;;2.10;;
44276;SDS011;29973;43.742;1.236;2023-05-03T09:11:28;2.40;;;1.98;;
44276;SDS011;29973;43.742;1.236;2023-05-03T09:14:09;2.95;;;2.10;;
44276;SDS011;29973;43.742;1.236;2023-05-03T09:16:36;4.15;;;1.95;;
44276;SDS011;29973;43.742;1.236;2023-05-03T09:19:05;3.70;;;1.90;;
44276;SDS011;29973;43.742;1.236;2023-05-03T09:21:33;6.05;;;1.88;;
44276;SDS011;29973;43.742;1.236;2023-05-03T09:24:00;2.70;;;1.88;;
44276;SDS011;29973;43.742;1.236;2023-05-03T09:26:32;2.40;;;1.80;;
44276;SDS011;29973;43.742;1.236;2023-05-03T09:29:02;4.47;;;1.77;;
44276;SDS011;29973;43.742;1.236;2023-05-03T09:31:29;6.25;;;2.08;;
44276;SDS011;29973;43.742;1.236;2023-05-03T09:33:56;7.60;;;1.80;;
44276;SDS011;29973;43.742;1.236;2023-05-03T09:36:22;4.43;;;1.70;;
44276;SDS011;29973;43.742;1.236;2023-05-03T09:38:50;3.50;;;1.85;;
44276;SDS011;29973;43.742;1.236;2023-05-03T09:41:37;4.22;;;1.60;;
44276;SDS011;29973;43.742;1.236;2023-05-03T09:44:02;4.05;;;1.85;;
44276;SDS011;29973;43.742;1.236;2023-05-03T09:46:28;3.03;;;1.80;;
44276;SDS011;29973;43.742;1.236;2023-05-03T09:48:57;7.68;;;1.70;;
44276;SDS011;29973;43.742;1.236;2023-05-03T09:51:23;3.08;;;1.75;;
44276;SDS011;29973;43.742;1.236;2023-05-03T09:53:49;5.90;;;2.13;;
44276;SDS011;29973;43.742;1.236;2023-05-03T09:56:15;5.45;;;2.47;;
44276;SDS011;29973;43.742;1.236;2023-05-03T09:58:44;3.95;;;1.67;;
44276;SDS011;29973;43.742;1.236;2023-05-03T10:01:11;6.05;;;1.90;;
44276;SDS011;29973;43.742;1.236;2023-05-03T10:03:43;1.85;;;1.70;;
44276;SDS011;29973;43.742;1.236;2023-05-03T10:09:17;2.65;;;1.90;;
44276;SDS011;29973;43.742;1.236;2023-05-03T10:11:50;5.82;;;2.28;;
44276;SDS011;29973;43.742;1.236;2023-05-03T10:14:20;4.57;;;1.85;;
44276;SDS011;29973;43.742;1.236;2023-05-03T10:16:47;1.83;;;1.70;;
44276;SDS011;29973;43.742;1.236;2023-05-03T10:19:16;3.17;;;1.77;;
44276;SDS011;29973;43.742;1.236;2023-05-03T10:22:03;4.88;;;2.25;;
44276;SDS011;29973;43.742;1.236;2023-05-03T10:24:30;3.08;;;1.80;;
44276;SDS011;29973;43.742;1.236;2023-05-03T10:27:00;2.47;;;1.50;;
44276;SDS011;29973;43.742;1.236;2023-05-03T10:31:59;2.90;;;1.70;;
44276;SDS011;29973;43.742;1.236;2023-05-03T10:34:29;3.25;;;1.83;;
44276;SDS011;29973;43.742;1.236;2023-05-03T10:36:58;2.45;;;1.73;;
44276;SDS011;29973;43.742;1.236;2023-05-03T10:39:35;3.50;;;1.65;;
44276;SDS011;29973;43.742;1.236;2023-05-03T10:42:05;4.07;;;1.58;;
44276;SDS011;29973;43.742;1.236;2023-05-03T10:44:39;3.55;;;1.60;;
44276;SDS011;29973;43.742;1.236;2023-05-03T10:47:15;4.00;;;2.15;;
44276;SDS011;29973;43.742;1.236;2023-05-03T10:49:42;3.20;;;1.40;;
44276;SDS011;29973;43.742;1.236;2023-05-03T10:54:59;3.95;;;1.17;;
44276;SDS011;29973;43.742;1.236;2023-05-03T10:57:28;2.03;;;1.73;;
44276;SDS011;29973;43.742;1.236;2023-05-03T10:59:57;1.75;;;1.42;;
44276;SDS011;29973;43.742;1.236;2023-05-03T11:02:25;9.77;;;2.03;;
44276;SDS011;29973;43.742;1.236;2023-05-03T11:04:58;2.35;;;1.40;;
44276;SDS011;29973;43.742;1.236;2023-05-03T11:07:29;3.75;;;1.50;;
44276;SDS011;29973;43.742;1.236;2023-05-03T11:09:55;6.82;;;1.70;;
44276;SDS011;29973;43.742;1.236;2023-05-03T11:12:21;2.80;;;1.65;;
44276;SDS011;29973;43.742;1.236;2023-05-03T11:14:49;7.00;;;1.85;;
44276;SDS011;29973;43.742;1.236;2023-05-03T11:17:15;2.85;;;1.95;;
44276;SDS011;29973;43.742;1.236;2023-05-03T11:19:45;2.42;;;1.55;;
44276;SDS011;29973;43.742;1.236;2023-05-03T11:22:10;1.92;;;1.40;;
44276;SDS011;29973;43.742;1.236;2023-05-03T11:24:36;2.45;;;1.90;;
44276;SDS011;29973;43.742;1.236;2023-05-03T11:27:02;2.25;;;1.38;;
44276;SDS011;29973;43.742;1.236;2023-05-03T11:29:28;1.67;;;1.30;;
44276;SDS011;29973;43.742;1.236;2023-05-03T11:31:55;1.80;;;1.33;;
44276;SDS011;29973;43.742;1.236;2023-05-03T11:34:21;1.98;;;1.77;;
44276;SDS011;29973;43.742;1.236;2023-05-03T11:36:47;4.93;;;1.60;;
44276;SDS011;29973;43.742;1.236;2023-05-03T11:39:13;3.17;;;1.75;;
44276;SDS011;29973;43.742;1.236;2023-05-03T11:41:39;6.10;;;1.70;;
44276;SDS011;29973;43.742;1.236;2023-05-03T11:44:06;5.43;;;1.90;;
44276;SDS011;29973;43.742;1.236;2023-05-03T11:46:33;10.77;;;1.80;;
44276;SDS011;29973;43.742;1.236;2023-05-03T11:49:01;4.03;;;1.80;;
44276;SDS011;29973;43.742;1.236;2023-05-03T11:51:27;5.93;;;1.60;;
44276;SDS011;29973;43.742;1.236;2023-05-03T11:53:54;2.42;;;1.40;;
44276;SDS011;29973;43.742;1.236;2023-05-03T11:56:20;4.07;;;1.60;;
44276;SDS011;29973;43.742;1.236;2023-05-03T11:58:51;3.97;;;1.60;;
44276;SDS011;29973;43.742;1.236;2023-05-03T12:01:19;2.20;;;1.60;;
44276;SDS011;29973;43.742;1.236;2023-05-03T12:03:51;3.55;;;2.28;;
44276;SDS011;29973;43.742;1.236;2023-05-03T12:06:22;9.25;;;1.92;;
44276;SDS011;29973;43.742;1.236;2023-05-03T12:08:49;5.30;;;1.80;;
44276;SDS011;29973;43.742;1.236;2023-05-03T12:11:15;3.50;;;1.70;;
44276;SDS011;29973;43.742;1.236;2023-05-03T12:13:41;10.07;;;2.15;;
44276;SDS011;29973;43.742;1.236;2023-05-03T12:16:07;3.72;;;1.60;;
44276;SDS011;29973;43.742;1.236;2023-05-03T12:18:44;6.82;;;1.30;;
44276;SDS011;29973;43.742;1.236;2023-05-03T12:21:14;2.70;;;1.50;;
44276;SDS011;29973;43.742;1.236;2023-05-03T12:23:41;1.90;;;1.50;;
44276;SDS011;29973;43.742;1.236;2023-05-03T12:26:07;5.57;;;1.83;;
44276;SDS011;29973;43.742;1.236;2023-05-03T12:28:32;2.03;;;1.38;;
44276;SDS011;29973;43.742;1.236;2023-05-03T12:30:58;2.95;;;1.48;;
44276;SDS011;29973;43.742;1.236;2023-05-03T12:33:24;2.05;;;1.45;;
44276;SDS011;29973;43.742;1.236;2023-05-03T12:35:50;2.15;;;1.60;;
44276;SDS011;29973;43.742;1.236;2023-05-03T12:38:16;6.43;;;2.40;;
44276;SDS011;29973;43.742;1.236;2023-05-03T12:40:42;6.00;;;1.70;;
44276;SDS011;29973;43.742;1.236;2023-05-03T12:43:09;4.65;;;1.40;;
44276;SDS011;29973;43.742;1.236;2023-05-03T12:45:35;3.00;;;1.35;;
44276;SDS011;29973;43.742;1.236;2023-05-03T12:48:01;4.60;;;1.30;;
44276;SDS011;29973;43.742;1.236;2023-05-03T12:50:27;3.53;;;1.23;;
44276;SDS011;29973;43.742;1.236;2023-05-03T12:52:54;4.50;;;1.30;;
44276;SDS011;29973;43.742;1.236;2023-05-03T12:55:20;3.35;;;1.45;;
44276;SDS011;29973;43.742;1.236;2023-05-03T12:57:45;6.97;;;1.30;;
44276;SDS011;29973;43.742;1.236;2023-05-03T13:00:11;4.47;;;1.75;;
44276;SDS011;29973;43.742;1.236;2023-05-03T13:02:37;4.57;;;1.52;;
44276;SDS011;29973;43.742;1.236;2023-05-03T13:05:03;7.10;;;1.30;;
44276;SDS011;29973;43.742;1.236;2023-05-03T13:07:30;7.18;;;1.70;;
44276;SDS011;29973;43.742;1.236;2023-05-03T13:09:56;6.45;;;1.48;;
44276;SDS011;29973;43.742;1.236;2023-05-03T13:12:22;2.05;;;1.13;;
44276;SDS011;29973;43.742;1.236;2023-05-03T13:14:50;4.97;;;1.42;;
44276;SDS011;29973;43.742;1.236;2023-05-03T13:17:18;4.25;;;1.33;;
44276;SDS011;29973;43.742;1.236;2023-05-03T13:19:46;4.18;;;1.70;;
44276;SDS011;29973;43.742;1.236;2023-05-03T13:22:12;2.08;;;1.45;;
44276;SDS011;29973;43.742;1.236;2023-05-03T13:24:42;1.35;;;1.20;;
44276;SDS011;29973;43.742;1.236;2023-05-03T13:29:36;4.78;;;1.65;;
44276;SDS011;29973;43.742;1.236;2023-05-03T13:32:02;2.45;;;1.50;;
44276;SDS011;29973;43.742;1.236;2023-05-03T13:34:28;3.05;;;1.00;;
44276;SDS011;29973;43.742;1.236;2023-05-03T13:36:54;3.70;;;1.17;;
44276;SDS011;29973;43.742;1.236;2023-05-03T13:39:19;4.97;;;1.30;;
44276;SDS011;29973;43.742;1.236;2023-05-03T13:41:45;2.25;;;1.30;;
44276;SDS011;29973;43.742;1.236;2023-05-03T13:44:11;4.30;;;1.23;;
44276;SDS011;29973;43.742;1.236;2023-05-03T13:46:37;2.03;;;1.40;;
44276;SDS011;29973;43.742;1.236;2023-05-03T13:49:04;4.25;;;1.40;;
44276;SDS011;29973;43.742;1.236;2023-05-03T13:51:33;3.88;;;1.27;;
44276;SDS011;29973;43.742;1.236;2023-05-03T13:54:00;2.28;;;1.20;;
44276;SDS011;29973;43.742;1.236;2023-05-03T13:56:28;2.22;;;1.40;;
44276;SDS011;29973;43.742;1.236;2023-05-03T13:58:54;2.50;;;1.17;;
44276;SDS011;29973;43.742;1.236;2023-05-03T14:01:22;3.03;;;1.38;;
44276;SDS011;29973;43.742;1.236;2023-05-03T14:03:49;2.20;;;1.08;;
44276;SDS011;29973;43.742;1.236;2023-05-03T14:06:15;3.53;;;1.23;;
44276;SDS011;29973;43.742;1.236;2023-05-03T14:08:41;5.45;;;1.50;;
44276;SDS011;29973;43.742;1.236;2023-05-03T14:11:16;3.08;;;1.15;;
44276;SDS011;29973;43.742;1.236;2023-05-03T14:13:43;2.00;;;1.20;;
44276;SDS011;29973;43.742;1.236;2023-05-03T14:16:18;4.88;;;1.10;;
44276;SDS011;29973;43.742;1.236;2023-05-03T14:18:46;1.20;;;0.93;;
44276;SDS011;29973;43.742;1.236;2023-05-03T14:21:14;3.08;;;1.23;;
44276;SDS011;29973;43.742;1.236;2023-05-03T14:23:42;5.22;;;1.65;;
44276;SDS011;29973;43.742;1.236;2023-05-03T14:26:08;1.27;;;1.10;;
44276;SDS011;29973;43.742;1.236;2023-05-03T14:28:34;3.70;;;1.20;;
44276;SDS011;29973;43.742;1.236;2023-05-03T14:31:02;2.25;;;1.10;;
44276;SDS011;29973;43.742;1.236;2023-05-03T14:33:28;4.00;;;1.20;;
44276;SDS011;29973;43.742;1.236;2023-05-03T14:35:54;3.38;;;1.10;;
44276;SDS011;29973;43.742;1.236;2023-05-03T14:38:20;2.42;;;1.13;;
44276;SDS011;29973;43.742;1.236;2023-05-03T14:40:46;2.67;;;1.10;;
44276;SDS011;29973;43.742;1.236;2023-05-03T14:43:12;3.45;;;0.93;;
44276;SDS011;29973;43.742;1.236;2023-05-03T14:45:39;1.60;;;1.30;;
44276;SDS011;29973;43.742;1.236;2023-05-03T14:48:06;2.45;;;1.20;;
44276;SDS011;29973;43.742;1.236;2023-05-03T14:50:32;3.22;;;1.38;;
44276;SDS011;29973;43.742;1.236;2023-05-03T14:52:57;2.20;;;1.25;;
44276;SDS011;29973;43.742;1.236;2023-05-03T14:55:23;3.60;;;1.35;;
44276;SDS011;29973;43.742;1.236;2023-05-03T14:57:49;2.17;;;1.02;;
44276;SDS011;29973;43.742;1.236;2023-05-03T15:00:15;2.70;;;1.55;;
44276;SDS011;29973;43.742;1.236;2023-05-03T15:02:43;1.38;;;1.23;;